sensor_id;sensor_type;location;lat;lon;timestamp;pressure;altitude;pressure_sealevel;temperature;humidity
56518;BME280;42419;48.760;2.322;2022-11-06T00:01:20;100930.84;;;22.17;41.43
56518;BME280;42419;48.760;2.322;2022-11-06T00:03:46;100917.69;;;22.11;41.69
56518;BME280;42419;48.760;2.322;2022-11-06T00:06:13;100915.06;;;22.10;42.38
56518;BME280;42419;48.760;2.322;2022-11-06T00:08:59;100914.84;;;22.14;41.92
56518;BME280;42419;48.760;2.322;2022-11-06T00:11:24;100913.97;;;22.14;42.04
56518;BME280;42419;48.760;2.322;2022-11-06T00:13:50;100905.94;;;22.14;42.24
56518;BME280;42419;48.760;2.322;2022-11-06T00:16:17;100908.78;;;22.11;42.42
56518;BME280;42419;48.760;2.322;2022-11-06T00:18:43;100915.22;;;22.07;42.58
56518;BME280;42419;48.760;2.322;2022-11-06T00:21:14;100920.63;;;22.05;42.83
56518;BME280;42419;48.760;2.322;2022-11-06T00:23:40;100930.44;;;22.06;43.24
56518;BME280;42419;48.760;2.322;2022-11-06T00:26:07;100938.53;;;22.05;43.32
56518;BME280;42419;48.760;2.322;2022-11-06T00:28:33;100931.34;;;22.05;42.99
56518;BME280;42419;48.760;2.322;2022-11-06T00:31:00;100937.59;;;22.06;43.15
56518;BME280;42419;48.760;2.322;2022-11-06T00:33:26;100940.44;;;22.03;42.94
56518;BME280;42419;48.760;2.322;2022-11-06T00:35:51;100926.34;;;21.98;43.12
56518;BME280;42419;48.760;2.322;2022-11-06T00:38:16;100919.13;;;22.00;43.21
56518;BME280;42419;48.760;2.322;2022-11-06T00:40:42;100904.94;;;21.96;43.34
56518;BME280;42419;48.760;2.322;2022-11-06T00:43:07;100917.28;;;22.00;43.55
56518;BME280;42419;48.760;2.322;2022-11-06T00:45:32;100926.19;;;22.01;43.44
56518;BME280;42419;48.760;2.322;2022-11-06T00:47:58;100923.59;;;21.99;43.99
56518;BME280;42419;48.760;2.322;2022-11-06T00:50:23;100927.16;;;22.00;43.47
56518;BME280;42419;48.760;2.322;2022-11-06T00:52:50;100909.31;;;21.99;43.87
56518;BME280;42419;48.760;2.322;2022-11-06T00:55:15;100896.81;;;21.99;43.78
56518;BME280;42419;48.760;2.322;2022-11-06T00:57:41;100894.13;;;21.99;44.13
56518;BME280;42419;48.760;2.322;2022-11-06T01:00:06;100886.81;;;22.03;44.03
56518;BME280;42419;48.760;2.322;2022-11-06T01:02:32;100885.06;;;22.02;43.82
56518;BME280;42419;48.760;2.322;2022-11-06T01:04:57;100886.06;;;21.99;43.70
56518;BME280;42419;48.760;2.322;2022-11-06T01:07:22;100885.47;;;21.92;44.00
56518;BME280;42419;48.760;2.322;2022-11-06T01:09:48;100893.25;;;21.99;43.91
56518;BME280;42419;48.760;2.322;2022-11-06T01:12:13;100891.50;;;21.98;44.00
56518;BME280;42419;48.760;2.322;2022-11-06T01:14:40;100877.22;;;21.97;44.01
56518;BME280;42419;48.760;2.322;2022-11-06T01:17:05;100866.50;;;21.97;43.94
56518;BME280;42419;48.760;2.322;2022-11-06T01:19:30;100860.25;;;21.96;44.18
56518;BME280;42419;48.760;2.322;2022-11-06T01:21:56;100870.03;;;21.98;44.04
56518;BME280;42419;48.760;2.322;2022-11-06T01:24:24;100864.75;;;21.96;44.61
56518;BME280;42419;48.760;2.322;2022-11-06T01:26:50;100868.25;;;21.98;44.43
56518;BME280;42419;48.760;2.322;2022-11-06T01:29:17;100833.56;;;21.73;44.17
56518;BME280;42419;48.760;2.322;2022-11-06T01:31:43;100870.09;;;21.96;44.16
56518;BME280;42419;48.760;2.322;2022-11-06T01:34:10;100858.50;;;21.95;44.16
56518;BME280;42419;48.760;2.322;2022-11-06T01:36:36;100848.09;;;21.89;44.20
56518;BME280;42419;48.760;2.322;2022-11-06T01:39:04;100863.81;;;21.97;44.36
56518;BME280;42419;48.760;2.322;2022-11-06T01:41:42;100865.72;;;21.95;44.38
56518;BME280;42419;48.760;2.322;2022-11-06T01:47:36;100866.69;;;21.92;44.11
56518;BME280;42419;48.760;2.322;2022-11-06T01:50:06;100869.31;;;21.94;44.00
56518;BME280;42419;48.760;2.322;2022-11-06T01:52:33;100828.38;;;21.70;44.09
56518;BME280;42419;48.760;2.322;2022-11-06T01:55:10;100858.09;;;21.86;43.93
56518;BME280;42419;48.760;2.322;2022-11-06T01:57:37;100855.31;;;21.87;44.09
56518;BME280;42419;48.760;2.322;2022-11-06T02:00:04;100859.53;;;21.93;44.25
56518;BME280;42419;48.760;2.322;2022-11-06T02:02:30;100856.03;;;21.91;43.60
56518;BME280;42419;48.760;2.322;2022-11-06T02:04:55;100845.19;;;21.94;44.33
56518;BME280;42419;48.760;2.322;2022-11-06T02:07:20;100844.31;;;21.93;44.11
56518;BME280;42419;48.760;2.322;2022-11-06T02:09:45;100838.09;;;21.93;44.53
56518;BME280;42419;48.760;2.322;2022-11-06T02:14:54;100828.22;;;21.93;44.55
56518;BME280;42419;48.760;2.322;2022-11-06T02:20:12;100797.94;;;21.91;43.98
56518;BME280;42419;48.760;2.322;2022-11-06T02:25:48;100785.50;;;21.90;44.29
56518;BME280;42419;48.760;2.322;2022-11-06T02:28:22;100778.38;;;21.89;44.04
56518;BME280;42419;48.760;2.322;2022-11-06T02:30:48;100768.59;;;21.88;43.96
56518;BME280;42419;48.760;2.322;2022-11-06T02:33:17;100758.06;;;21.84;44.02
56518;BME280;42419;48.760;2.322;2022-11-06T02:35:52;100771.34;;;21.87;43.81
56518;BME280;42419;48.760;2.322;2022-11-06T02:38:27;100761.44;;;21.89;44.26
56518;BME280;42419;48.760;2.322;2022-11-06T02:40:56;100763.22;;;21.88;44.11
56518;BME280;42419;48.760;2.322;2022-11-06T02:43:27;100765.03;;;21.88;44.05
56518;BME280;42419;48.760;2.322;2022-11-06T09:21:35;100412.69;;;20.50;44.83
56518;BME280;42419;48.760;2.322;2022-11-06T09:24:01;100396.94;;;20.81;44.25
56518;BME280;42419;48.760;2.322;2022-11-06T09:26:29;100394.78;;;21.06;43.81
56518;BME280;42419;48.760;2.322;2022-11-06T09:28:54;100396.75;;;21.22;43.36
56518;BME280;42419;48.760;2.322;2022-11-06T09:31:19;100388.09;;;21.34;42.99
56518;BME280;42419;48.760;2.322;2022-11-06T09:33:44;100385.81;;;21.43;42.56
56518;BME280;42419;48.760;2.322;2022-11-06T09:36:10;100391.66;;;21.51;42.33
56518;BME280;42419;48.760;2.322;2022-11-06T09:38:35;100377.94;;;21.58;42.24
56518;BME280;42419;48.760;2.322;2022-11-06T09:41:02;100372.44;;;21.61;42.18
56518;BME280;42419;48.760;2.322;2022-11-06T09:43:49;100356.22;;;21.64;41.59
56518;BME280;42419;48.760;2.322;2022-11-06T09:46:26;100357.78;;;21.68;41.34
56518;BME280;42419;48.760;2.322;2022-11-06T09:54:42;100362.72;;;21.75;41.24
56518;BME280;42419;48.760;2.322;2022-11-06T09:57:22;100351.84;;;21.78;41.41
56518;BME280;42419;48.760;2.322;2022-11-06T09:59:53;100345.72;;;21.76;41.02
56518;BME280;42419;48.760;2.322;2022-11-06T10:03:22;100351.78;;;21.80;41.06
56518;BME280;42419;48.760;2.322;2022-11-06T10:05:34;100356.03;;;21.84;40.88
56518;BME280;42419;48.760;2.322;2022-11-06T10:08:03;100364.00;;;21.85;40.66
56518;BME280;42419;48.760;2.322;2022-11-06T10:10:37;100364.78;;;21.87;40.62
56518;BME280;42419;48.760;2.322;2022-11-06T10:13:44;100362.97;;;21.88;40.57
56518;BME280;42419;48.760;2.322;2022-11-06T10:16:27;100356.50;;;21.92;40.72
56518;BME280;42419;48.760;2.322;2022-11-06T10:24:51;100345.53;;;21.96;40.33
56518;BME280;42419;48.760;2.322;2022-11-06T10:27:26;100342.84;;;21.96;40.44
56518;BME280;42419;48.760;2.322;2022-11-06T10:30:04;100345.41;;;22.00;40.47
56518;BME280;42419;48.760;2.322;2022-11-06T10:33:19;100343.66;;;21.99;40.21
56518;BME280;42419;48.760;2.322;2022-11-06T10:35:49;100360.50;;;22.01;39.96
56518;BME280;42419;48.760;2.322;2022-11-06T10:38:27;100365.78;;;22.02;40.07
56518;BME280;42419;48.760;2.322;2022-11-06T10:40:54;100368.41;;;22.04;40.56
56518;BME280;42419;48.760;2.322;2022-11-06T10:43:39;100370.22;;;22.03;40.37
56518;BME280;42419;48.760;2.322;2022-11-06T10:48:42;100340.03;;;22.00;40.33
56518;BME280;42419;48.760;2.322;2022-11-06T10:51:45;100340.03;;;22.00;40.58
56518;BME280;42419;48.760;2.322;2022-11-06T10:57:01;100336.94;;;22.07;40.69
56518;BME280;42419;48.760;2.322;2022-11-06T10:59:28;100311.31;;;22.02;40.63
56518;BME280;42419;48.760;2.322;2022-11-06T11:01:53;100322.47;;;22.10;40.49
56518;BME280;42419;48.760;2.322;2022-11-06T11:04:18;100306.56;;;22.07;40.81
56518;BME280;42419;48.760;2.322;2022-11-06T11:06:44;100315.31;;;22.10;40.94
56518;BME280;42419;48.760;2.322;2022-11-06T11:09:38;100307.38;;;22.09;40.66
56518;BME280;42419;48.760;2.322;2022-11-06T11:12:07;100311.84;;;22.08;40.75
56518;BME280;42419;48.760;2.322;2022-11-06T11:14:43;100315.41;;;22.09;40.96
56518;BME280;42419;48.760;2.322;2022-11-06T11:17:08;100325.00;;;22.13;41.04
56518;BME280;42419;48.760;2.322;2022-11-06T11:22:03;100318.69;;;22.14;41.51
56518;BME280;42419;48.760;2.322;2022-11-06T11:24:29;100308.81;;;22.14;41.48
56518;BME280;42419;48.760;2.322;2022-11-06T11:26:58;100323.09;;;22.15;41.44
56518;BME280;42419;48.760;2.322;2022-11-06T11:29:30;100309.69;;;22.15;41.25
56518;BME280;42419;48.760;2.322;2022-11-06T11:32:03;100293.09;;;22.08;41.25
56518;BME280;42419;48.760;2.322;2022-11-06T11:34:34;100294.53;;;22.14;41.25
56518;BME280;42419;48.760;2.322;2022-11-06T11:37:04;100285.56;;;22.15;41.21
56518;BME280;42419;48.760;2.322;2022-11-06T11:39:35;100288.31;;;22.13;41.08
56518;BME280;42419;48.760;2.322;2022-11-06T11:45:11;100262.56;;;22.11;41.09
56518;BME280;42419;48.760;2.322;2022-11-06T11:47:42;100228.22;;;22.02;40.84
56518;BME280;42419;48.760;2.322;2022-11-06T11:50:25;100246.66;;;22.08;40.98
56518;BME280;42419;48.760;2.322;2022-11-06T11:52:57;100240.41;;;22.07;41.17
56518;BME280;42419;48.760;2.322;2022-11-06T11:55:25;100232.28;;;22.09;41.03
56518;BME280;42419;48.760;2.322;2022-11-06T11:57:54;100218.09;;;22.07;41.09
56518;BME280;42419;48.760;2.322;2022-11-06T12:00:22;100203.31;;;22.00;41.24
56518;BME280;42419;48.760;2.322;2022-11-06T12:05:23;100219.84;;;22.08;41.08
56518;BME280;42419;48.760;2.322;2022-11-06T12:07:54;100213.00;;;22.02;40.89
56518;BME280;42419;48.760;2.322;2022-11-06T12:12:51;100219.03;;;22.06;40.72
56518;BME280;42419;48.760;2.322;2022-11-06T12:15:31;100198.09;;;21.96;40.77
56518;BME280;42419;48.760;2.322;2022-11-06T12:18:20;100203.13;;;22.03;40.71
56518;BME280;42419;48.760;2.322;2022-11-06T12:21:02;100200.47;;;22.03;40.39
56518;BME280;42419;48.760;2.322;2022-11-06T12:29:05;100183.75;;;21.98;40.37
56518;BME280;42419;48.760;2.322;2022-11-06T12:31:45;100187.50;;;21.95;40.63
56518;BME280;42419;48.760;2.322;2022-11-06T12:34:22;100173.47;;;21.90;40.57
56518;BME280;42419;48.760;2.322;2022-11-06T12:37:07;100175.03;;;21.94;40.45
56518;BME280;42419;48.760;2.322;2022-11-06T12:39:36;100168.19;;;21.88;40.59
56518;BME280;42419;48.760;2.322;2022-11-06T12:42:08;100159.03;;;21.92;40.30
56518;BME280;42419;48.760;2.322;2022-11-06T12:44:35;100158.09;;;21.93;40.63
56518;BME280;42419;48.760;2.322;2022-11-06T12:50:03;100157.28;;;21.91;40.54
56518;BME280;42419;48.760;2.322;2022-11-06T12:52:57;100154.59;;;21.91;40.30
56518;BME280;42419;48.760;2.322;2022-11-06T12:55:32;100145.00;;;21.87;40.22
56518;BME280;42419;48.760;2.322;2022-11-06T13:12:07;100135.78;;;21.93;40.67
56518;BME280;42419;48.760;2.322;2022-11-06T13:14:41;100126.78;;;21.94;41.07
56518;BME280;42419;48.760;2.322;2022-11-06T13:17:17;100129.34;;;21.95;41.53
56518;BME280;42419;48.760;2.322;2022-11-06T13:20:23;100118.63;;;21.95;42.51
56518;BME280;42419;48.760;2.322;2022-11-06T13:28:25;100109.50;;;22.00;42.71
56518;BME280;42419;48.760;2.322;2022-11-06T13:30:53;100115.69;;;22.00;42.28
56518;BME280;42419;48.760;2.322;2022-11-06T13:33:29;100116.41;;;22.04;42.49
56518;BME280;42419;48.760;2.322;2022-11-06T13:35:58;100109.56;;;21.98;42.21
56518;BME280;42419;48.760;2.322;2022-11-06T13:38:28;100117.16;;;22.06;42.24
56518;BME280;42419;48.760;2.322;2022-11-06T13:40:58;100110.19;;;22.03;41.95
56518;BME280;42419;48.760;2.322;2022-11-06T13:43:29;100081.22;;;21.94;41.89
56518;BME280;42419;48.760;2.322;2022-11-06T13:51:50;100106.28;;;22.09;42.10
56518;BME280;42419;48.760;2.322;2022-11-06T13:54:40;100109.72;;;22.11;42.01
56518;BME280;42419;48.760;2.322;2022-11-06T14:00:14;100104.44;;;22.09;41.95
56518;BME280;42419;48.760;2.322;2022-11-06T14:08:13;100099.06;;;22.09;41.69
56518;BME280;42419;48.760;2.322;2022-11-06T14:10:47;100094.59;;;22.10;41.53
56518;BME280;42419;48.760;2.322;2022-11-06T14:13:14;100089.16;;;22.11;41.37
56518;BME280;42419;48.760;2.322;2022-11-06T14:15:40;100084.91;;;22.07;41.94
56518;BME280;42419;48.760;2.322;2022-11-06T14:18:19;100067.13;;;21.90;41.49
56518;BME280;42419;48.760;2.322;2022-11-06T14:20:46;100083.38;;;22.03;41.34
56518;BME280;42419;48.760;2.322;2022-11-06T14:26:38;100104.44;;;22.09;41.62
56518;BME280;42419;48.760;2.322;2022-11-06T14:32:04;100098.06;;;22.12;41.38
56518;BME280;42419;48.760;2.322;2022-11-06T14:34:36;100101.59;;;22.12;41.24
56518;BME280;42419;48.760;2.322;2022-11-06T14:44:52;100105.50;;;22.07;41.25
56518;BME280;42419;48.760;2.322;2022-11-06T14:47:25;100120.53;;;22.09;41.05
56518;BME280;42419;48.760;2.322;2022-11-06T14:49:54;100113.47;;;22.08;41.06
56518;BME280;42419;48.760;2.322;2022-11-06T14:52:23;100121.41;;;22.10;41.08
56518;BME280;42419;48.760;2.322;2022-11-06T14:54:58;100130.41;;;22.09;41.06
56518;BME280;42419;48.760;2.322;2022-11-06T15:00:12;100119.84;;;22.06;40.83
56518;BME280;42419;48.760;2.322;2022-11-06T15:02:39;100128.69;;;22.08;41.10
56518;BME280;42419;48.760;2.322;2022-11-06T15:05:17;100134.91;;;22.08;41.09
56518;BME280;42419;48.760;2.322;2022-11-06T15:10:50;100133.16;;;22.07;40.85
56518;BME280;42419;48.760;2.322;2022-11-06T15:15:45;100131.19;;;22.11;40.94
56518;BME280;42419;48.760;2.322;2022-11-06T15:18:18;100101.94;;;22.06;40.70
56518;BME280;42419;48.760;2.322;2022-11-06T15:20:52;100095.81;;;22.04;40.88
56518;BME280;42419;48.760;2.322;2022-11-06T15:23:22;100107.13;;;22.09;41.18
56518;BME280;42419;48.760;2.322;2022-11-06T15:26:01;100112.41;;;22.11;40.93
56518;BME280;42419;48.760;2.322;2022-11-06T15:28:37;100114.34;;;22.09;41.10
56518;BME280;42419;48.760;2.322;2022-11-06T15:31:15;100116.03;;;22.10;41.12
56518;BME280;42419;48.760;2.322;2022-11-06T15:33:56;100124.94;;;22.10;40.87
56518;BME280;42419;48.760;2.322;2022-11-06T15:36:24;100132.13;;;22.10;40.81
56518;BME280;42419;48.760;2.322;2022-11-06T15:38:50;100120.78;;;22.05;40.73
56518;BME280;42419;48.760;2.322;2022-11-06T15:41:19;100132.22;;;22.08;40.87
56518;BME280;42419;48.760;2.322;2022-11-06T15:43:48;100133.16;;;22.07;40.98
56518;BME280;42419;48.760;2.322;2022-11-06T15:46:21;100130.41;;;22.09;40.92
56518;BME280;42419;48.760;2.322;2022-11-06T15:48:48;100091.56;;;21.84;41.09
56518;BME280;42419;48.760;2.322;2022-11-06T15:51:30;100131.50;;;22.05;40.80
56518;BME280;42419;48.760;2.322;2022-11-06T15:53:55;100143.03;;;22.07;41.03
56518;BME280;42419;48.760;2.322;2022-11-06T15:56:24;100157.31;;;22.07;40.75
56518;BME280;42419;48.760;2.322;2022-11-06T15:59:12;100168.09;;;22.06;41.17
56518;BME280;42419;48.760;2.322;2022-11-06T16:01:38;100169.75;;;22.08;40.65
56518;BME280;42419;48.760;2.322;2022-11-06T16:04:09;100164.56;;;22.05;40.94
56518;BME280;42419;48.760;2.322;2022-11-06T16:06:35;100162.75;;;22.06;41.22
56518;BME280;42419;48.760;2.322;2022-11-06T16:09:02;100174.94;;;22.11;40.92
56518;BME280;42419;48.760;2.322;2022-11-06T16:11:28;100163.28;;;22.12;40.91
56518;BME280;42419;48.760;2.322;2022-11-06T16:13:54;100143.47;;;21.99;40.92
56518;BME280;42419;48.760;2.322;2022-11-06T16:16:39;100166.03;;;22.11;41.09
56518;BME280;42419;48.760;2.322;2022-11-06T16:19:19;100166.91;;;22.11;41.21
56518;BME280;42419;48.760;2.322;2022-11-06T16:22:08;100158.06;;;22.09;41.00
56518;BME280;42419;48.760;2.322;2022-11-06T16:24:58;100151.34;;;22.02;41.10
56518;BME280;42419;48.760;2.322;2022-11-06T16:27:32;100160.84;;;22.08;41.20
56518;BME280;42419;48.760;2.322;2022-11-06T16:29:59;100161.59;;;22.10;41.58
56518;BME280;42419;48.760;2.322;2022-11-06T16:32:29;100156.44;;;22.07;41.29
56518;BME280;42419;48.760;2.322;2022-11-06T16:34:56;100159.91;;;22.09;41.13
56518;BME280;42419;48.760;2.322;2022-11-06T16:39:54;100166.97;;;22.10;41.24
56518;BME280;42419;48.760;2.322;2022-11-06T16:44:49;100162.59;;;22.09;41.43
56518;BME280;42419;48.760;2.322;2022-11-06T16:47:18;100161.53;;;22.11;41.56
56518;BME280;42419;48.760;2.322;2022-11-06T16:49:45;100169.56;;;22.11;41.24
56518;BME280;42419;48.760;2.322;2022-11-06T16:54:50;100177.63;;;22.11;41.28
56518;BME280;42419;48.760;2.322;2022-11-06T16:57:19;100179.44;;;22.11;41.36
56518;BME280;42419;48.760;2.322;2022-11-06T16:59:58;100164.41;;;22.08;41.36
56518;BME280;42419;48.760;2.322;2022-11-06T17:02:27;100174.16;;;22.09;41.56
56518;BME280;42419;48.760;2.322;2022-11-06T17:07:38;100172.34;;;22.10;41.11
56518;BME280;42419;48.760;2.322;2022-11-06T17:10:23;100175.19;;;22.07;41.72
56518;BME280;42419;48.760;2.322;2022-11-06T17:12:49;100178.66;;;22.09;41.62
56518;BME280;42419;48.760;2.322;2022-11-06T17:15:14;100179.50;;;22.09;41.86
56518;BME280;42419;48.760;2.322;2022-11-06T17:17:41;100186.78;;;22.07;41.53
56518;BME280;42419;48.760;2.322;2022-11-06T17:20:16;100185.84;;;22.08;41.66
56518;BME280;42419;48.760;2.322;2022-11-06T17:22:41;100188.34;;;22.11;41.42
56518;BME280;42419;48.760;2.322;2022-11-06T17:25:07;100192.75;;;22.12;41.58
56518;BME280;42419;48.760;2.322;2022-11-06T17:27:32;100193.78;;;22.10;41.62
56518;BME280;42419;48.760;2.322;2022-11-06T17:29:57;100199.06;;;22.11;41.38
56518;BME280;42419;48.760;2.322;2022-11-06T17:32:23;100201.75;;;22.11;41.75
56518;BME280;42419;48.760;2.322;2022-11-06T17:34:48;100206.44;;;22.08;41.64
56518;BME280;42419;48.760;2.322;2022-11-06T17:37:13;100208.16;;;22.09;41.83
56518;BME280;42419;48.760;2.322;2022-11-06T17:39:39;100214.22;;;22.12;41.76
56518;BME280;42419;48.760;2.322;2022-11-06T17:42:05;100213.34;;;22.12;41.65
56518;BME280;42419;48.760;2.322;2022-11-06T17:44:30;100223.19;;;22.11;41.54
56518;BME280;42419;48.760;2.322;2022-11-06T17:46:55;100232.13;;;22.12;41.60
56518;BME280;42419;48.760;2.322;2022-11-06T17:49:21;100230.31;;;22.12;41.75
56518;BME280;42419;48.760;2.322;2022-11-06T17:51:46;100224.94;;;22.12;41.71
56518;BME280;42419;48.760;2.322;2022-11-06T17:54:15;100223.19;;;22.11;41.58
56518;BME280;42419;48.760;2.322;2022-11-06T17:56:41;100219.91;;;22.06;41.91
56518;BME280;42419;48.760;2.322;2022-11-06T17:59:08;100231.16;;;22.13;41.92
56518;BME280;42419;48.760;2.322;2022-11-06T18:01:34;100222.50;;;22.08;42.15
56518;BME280;42419;48.760;2.322;2022-11-06T18:03:59;100223.38;;;22.08;41.75
56518;BME280;42419;48.760;2.322;2022-11-06T18:06:25;100233.25;;;22.08;42.00
56518;BME280;42419;48.760;2.322;2022-11-06T18:08:57;100237.72;;;22.07;41.84
56518;BME280;42419;48.760;2.322;2022-11-06T18:11:23;100237.81;;;22.06;41.75
56518;BME280;42419;48.760;2.322;2022-11-06T18:13:49;100237.91;;;22.04;41.56
56518;BME280;42419;48.760;2.322;2022-11-06T18:16:18;100237.03;;;22.04;41.66
56518;BME280;42419;48.760;2.322;2022-11-06T18:18:44;100237.97;;;22.03;41.48
56518;BME280;42419;48.760;2.322;2022-11-06T18:21:10;100243.34;;;22.03;41.59
56518;BME280;42419;48.760;2.322;2022-11-06T18:23:35;100244.28;;;22.02;41.57
56518;BME280;42419;48.760;2.322;2022-11-06T18:26:01;100245.22;;;22.01;41.46
56518;BME280;42419;48.760;2.322;2022-11-06T18:28:26;100252.34;;;22.02;41.38
56518;BME280;42419;48.760;2.322;2022-11-06T18:30:51;100250.53;;;22.02;41.48
56518;BME280;42419;48.760;2.322;2022-11-06T18:33:18;100255.09;;;22.00;41.43
56518;BME280;42419;48.760;2.322;2022-11-06T18:35:45;100244.53;;;21.97;41.56
56518;BME280;42419;48.760;2.322;2022-11-06T18:38:14;100256.94;;;22.00;41.43
56518;BME280;42419;48.760;2.322;2022-11-06T18:40:41;100245.41;;;21.98;41.43
56518;BME280;42419;48.760;2.322;2022-11-06T18:43:07;100250.59;;;22.01;41.43
56518;BME280;42419;48.760;2.322;2022-11-06T18:45:36;100247.22;;;21.97;41.35
56518;BME280;42419;48.760;2.322;2022-11-06T18:48:02;100247.16;;;21.99;41.42
56518;BME280;42419;48.760;2.322;2022-11-06T18:50:27;100248.28;;;21.94;41.42
56518;BME280;42419;48.760;2.322;2022-11-06T18:52:53;100250.84;;;21.96;41.67
56518;BME280;42419;48.760;2.322;2022-11-06T18:55:19;100250.97;;;21.94;41.38
56518;BME280;42419;48.760;2.322;2022-11-06T18:57:44;100220.47;;;21.80;41.00
56518;BME280;42419;48.760;2.322;2022-11-06T19:00:10;100253.03;;;21.89;41.46
56518;BME280;42419;48.760;2.322;2022-11-06T19:02:37;100258.28;;;21.91;41.33
56518;BME280;42419;48.760;2.322;2022-11-06T19:05:04;100270.66;;;21.93;41.45
56518;BME280;42419;48.760;2.322;2022-11-06T19:07:30;100271.41;;;21.95;41.45
56518;BME280;42419;48.760;2.322;2022-11-06T19:09:55;100277.66;;;21.96;41.47
56518;BME280;42419;48.760;2.322;2022-11-06T19:12:21;100275.94;;;21.95;41.45
56518;BME280;42419;48.760;2.322;2022-11-06T19:14:46;100285.69;;;21.96;41.36
56518;BME280;42419;48.760;2.322;2022-11-06T19:17:11;100273.41;;;21.92;41.18
56518;BME280;42419;48.760;2.322;2022-11-06T19:19:37;100279.56;;;21.94;41.46
56518;BME280;42419;48.760;2.322;2022-11-06T19:22:02;100274.53;;;21.88;41.52
56518;BME280;42419;48.760;2.322;2022-11-06T19:24:27;100279.81;;;21.89;41.32
56518;BME280;42419;48.760;2.322;2022-11-06T19:26:53;100286.66;;;21.95;41.30
56518;BME280;42419;48.760;2.322;2022-11-06T19:29:18;100290.19;;;21.95;41.32
56518;BME280;42419;48.760;2.322;2022-11-06T19:31:43;100278.09;;;21.88;41.26
56518;BME280;42419;48.760;2.322;2022-11-06T19:34:12;100292.28;;;21.90;41.33
56518;BME280;42419;48.760;2.322;2022-11-06T19:36:37;100306.13;;;21.99;41.33
56518;BME280;42419;48.760;2.322;2022-11-06T19:39:04;100308.00;;;21.96;41.32
56518;BME280;42419;48.760;2.322;2022-11-06T19:41:30;100310.53;;;22.00;41.92
56518;BME280;42419;48.760;2.322;2022-11-06T19:43:56;100299.03;;;21.98;41.54
56518;BME280;42419;48.760;2.322;2022-11-06T19:46:21;100298.09;;;21.99;41.30
56518;BME280;42419;48.760;2.322;2022-11-06T19:48:47;100286.19;;;21.87;41.50
56518;BME280;42419;48.760;2.322;2022-11-06T19:51:14;100307.00;;;21.99;41.83
56518;BME280;42419;48.760;2.322;2022-11-06T19:53:40;100310.53;;;22.00;41.57
56518;BME280;42419;48.760;2.322;2022-11-06T19:56:07;100320.28;;;22.01;42.08
56518;BME280;42419;48.760;2.322;2022-11-06T19:58:34;100322.97;;;22.01;41.86
56518;BME280;42419;48.760;2.322;2022-11-06T20:01:04;100324.72;;;22.02;42.18
56518;BME280;42419;48.760;2.322;2022-11-06T20:03:29;100331.81;;;22.03;42.39
56518;BME280;42419;48.760;2.322;2022-11-06T20:05:55;100323.94;;;22.00;42.12
56518;BME280;42419;48.760;2.322;2022-11-06T20:08:20;100327.31;;;22.03;42.18
56518;BME280;42419;48.760;2.322;2022-11-06T20:10:46;100332.75;;;22.02;42.31
56518;BME280;42419;48.760;2.322;2022-11-06T20:13:11;100331.81;;;22.03;42.01
56518;BME280;42419;48.760;2.322;2022-11-06T20:15:36;100337.19;;;22.03;42.09
56518;BME280;42419;48.760;2.322;2022-11-06T20:18:02;100349.53;;;22.05;42.18
56518;BME280;42419;48.760;2.322;2022-11-06T20:20:27;100337.19;;;22.03;42.22
56518;BME280;42419;48.760;2.322;2022-11-06T20:22:53;100351.03;;;22.11;42.26
56518;BME280;42419;48.760;2.322;2022-11-06T20:25:18;100346.09;;;22.03;42.41
56518;BME280;42419;48.760;2.322;2022-11-06T20:27:44;100358.91;;;22.14;42.48
56518;BME280;42419;48.760;2.322;2022-11-06T20:30:10;100362.56;;;22.13;42.54
56518;BME280;42419;48.760;2.322;2022-11-06T20:32:35;100364.25;;;22.14;42.46
56518;BME280;42419;48.760;2.322;2022-11-06T20:35:02;100360.63;;;22.15;42.67
56518;BME280;42419;48.760;2.322;2022-11-06T20:37:27;100357.00;;;22.16;42.58
56518;BME280;42419;48.760;2.322;2022-11-06T20:39:53;100344.03;;;22.08;42.42
56518;BME280;42419;48.760;2.322;2022-11-06T20:42:18;100357.34;;;22.10;42.59
56518;BME280;42419;48.760;2.322;2022-11-06T20:44:43;100373.03;;;22.17;42.47
56518;BME280;42419;48.760;2.322;2022-11-06T20:47:09;100373.34;;;22.11;42.56
56518;BME280;42419;48.760;2.322;2022-11-06T20:49:36;100373.09;;;22.16;42.53
56518;BME280;42419;48.760;2.322;2022-11-06T20:52:02;100374.03;;;22.15;42.39
56518;BME280;42419;48.760;2.322;2022-11-06T20:54:27;100374.91;;;22.15;42.20
56518;BME280;42419;48.760;2.322;2022-11-06T20:56:53;100372.22;;;22.15;42.11
56518;BME280;42419;48.760;2.322;2022-11-06T20:59:18;100370.66;;;22.11;42.38
56518;BME280;42419;48.760;2.322;2022-11-06T21:01:44;100377.59;;;22.15;42.37
56518;BME280;42419;48.760;2.322;2022-11-06T21:04:10;100384.78;;;22.15;42.26
56518;BME280;42419;48.760;2.322;2022-11-06T21:06:35;100356.97;;;22.00;42.37
56518;BME280;42419;48.760;2.322;2022-11-06T21:09:03;100379.59;;;22.12;42.59
56518;BME280;42419;48.760;2.322;2022-11-06T21:11:29;100368.22;;;22.07;42.58
56518;BME280;42419;48.760;2.322;2022-11-06T21:13:54;100370.50;;;22.14;42.50
56518;BME280;42419;48.760;2.322;2022-11-06T21:16:22;100374.13;;;22.13;42.68
56518;BME280;42419;48.760;2.322;2022-11-06T21:18:49;100361.31;;;22.03;43.61
56518;BME280;42419;48.760;2.322;2022-11-06T21:21:18;100395.50;;;22.15;46.12
56518;BME280;42419;48.760;2.322;2022-11-06T21:23:45;100401.72;;;22.15;45.27
56518;BME280;42419;48.760;2.322;2022-11-06T21:26:26;100402.59;;;22.16;45.82
56518;BME280;42419;48.760;2.322;2022-11-06T21:28:51;100385.44;;;22.03;45.29
56518;BME280;42419;48.760;2.322;2022-11-06T21:31:19;100407.09;;;22.15;45.40
56518;BME280;42419;48.760;2.322;2022-11-06T21:33:47;100412.53;;;22.14;45.38